sensor_id;sensor_type;location;lat;lon;timestamp;P1;durP1;ratioP1;P2;durP2;ratioP2
19113;SDS011;9689;51.052;13.772;2022-07-21T00:00:24;13.85;;;3.30;;
19113;SDS011;9689;51.052;13.772;2022-07-21T00:05:27;4.32;;;2.60;;
19113;SDS011;9689;51.052;13.772;2022-07-21T00:10:28;4.85;;;3.00;;
19113;SDS011;9689;51.052;13.772;2022-07-21T00:15:28;6.28;;;3.03;;
19113;SDS011;9689;51.052;13.772;2022-07-21T00:20:31;7.88;;;3.05;;
19113;SDS011;9689;51.052;13.772;2022-07-21T00:25:31;4.90;;;3.08;;
19113;SDS011;9689;51.052;13.772;2022-07-21T00:30:33;7.47;;;2.72;;
19113;SDS011;9689;51.052;13.772;2022-07-21T00:35:35;8.43;;;2.92;;
19113;SDS011;9689;51.052;13.772;2022-07-21T00:40:35;6.60;;;3.00;;
19113;SDS011;9689;51.052;13.772;2022-07-21T00:45:36;4.80;;;2.80;;
19113;SDS011;9689;51.052;13.772;2022-07-21T00:50:38;15.07;;;3.55;;
19113;SDS011;9689;51.052;13.772;2022-07-21T00:55:41;6.57;;;3.10;;
19113;SDS011;9689;51.052;13.772;2022-07-21T01:00:43;10.48;;;3.38;;
19113;SDS011;9689;51.052;13.772;2022-07-21T01:05:45;3.45;;;2.75;;
19113;SDS011;9689;51.052;13.772;2022-07-21T01:10:46;5.20;;;2.40;;
19113;SDS011;9689;51.052;13.772;2022-07-21T01:15:47;6.03;;;2.83;;
19113;SDS011;9689;51.052;13.772;2022-07-21T01:20:50;7.18;;;3.38;;
19113;SDS011;9689;51.052;13.772;2022-07-21T01:25:53;9.20;;;3.38;;
19113;SDS011;9689;51.052;13.772;2022-07-21T01:30:54;6.72;;;3.10;;
19113;SDS011;9689;51.052;13.772;2022-07-21T01:35:55;4.00;;;2.45;;
19113;SDS011;9689;51.052;13.772;2022-07-21T01:40:58;5.00;;;3.10;;
19113;SDS011;9689;51.052;13.772;2022-07-21T01:46:17;5.45;;;2.85;;
19113;SDS011;9689;51.052;13.772;2022-07-21T01:51:18;8.13;;;3.15;;
19113;SDS011;9689;51.052;13.772;2022-07-21T01:56:20;5.40;;;2.65;;
19113;SDS011;9689;51.052;13.772;2022-07-21T02:01:22;10.35;;;2.85;;
19113;SDS011;9689;51.052;13.772;2022-07-21T02:06:27;6.68;;;2.95;;
19113;SDS011;9689;51.052;13.772;2022-07-21T02:11:30;5.25;;;3.10;;
19113;SDS011;9689;51.052;13.772;2022-07-21T02:16:30;6.15;;;2.58;;
19113;SDS011;9689;51.052;13.772;2022-07-21T02:21:31;6.97;;;3.25;;
19113;SDS011;9689;51.052;13.772;2022-07-21T02:26:33;6.70;;;3.28;;
19113;SDS011;9689;51.052;13.772;2022-07-21T02:31:34;6.47;;;2.97;;
19113;SDS011;9689;51.052;13.772;2022-07-21T02:36:34;6.72;;;2.80;;
19113;SDS011;9689;51.052;13.772;2022-07-21T02:41:36;4.00;;;3.00;;
19113;SDS011;9689;51.052;13.772;2022-07-21T02:46:37;5.25;;;3.38;;
19113;SDS011;9689;51.052;13.772;2022-07-21T02:51:37;5.93;;;2.90;;
19113;SDS011;9689;51.052;13.772;2022-07-21T02:56:39;5.53;;;2.95;;
19113;SDS011;9689;51.052;13.772;2022-07-21T03:01:40;7.70;;;3.38;;
19113;SDS011;9689;51.052;13.772;2022-07-21T03:06:41;12.45;;;3.30;;
19113;SDS011;9689;51.052;13.772;2022-07-21T03:11:43;6.88;;;3.10;;
19113;SDS011;9689;51.052;13.772;2022-07-21T03:16:44;6.88;;;3.35;;
19113;SDS011;9689;51.052;13.772;2022-07-21T03:21:45;10.10;;;4.95;;
19113;SDS011;9689;51.052;13.772;2022-07-21T03:26:47;10.73;;;3.78;;
19113;SDS011;9689;51.052;13.772;2022-07-21T03:31:47;10.77;;;5.55;;
19113;SDS011;9689;51.052;13.772;2022-07-21T03:36:48;6.97;;;4.05;;
19113;SDS011;9689;51.052;13.772;2022-07-21T03:41:50;15.57;;;4.55;;
19113;SDS011;9689;51.052;13.772;2022-07-21T03:46:51;7.43;;;4.05;;
19113;SDS011;9689;51.052;13.772;2022-07-21T03:51:52;7.13;;;3.85;;
19113;SDS011;9689;51.052;13.772;2022-07-21T03:56:54;11.32;;;4.35;;
19113;SDS011;9689;51.052;13.772;2022-07-21T04:01:54;12.32;;;4.35;;
19113;SDS011;9689;51.052;13.772;2022-07-21T04:06:55;9.90;;;4.78;;
19113;SDS011;9689;51.052;13.772;2022-07-21T04:11:57;6.22;;;4.43;;
19113;SDS011;9689;51.052;13.772;2022-07-21T04:16:57;8.98;;;4.90;;
19113;SDS011;9689;51.052;13.772;2022-07-21T04:21:58;15.18;;;4.93;;
19113;SDS011;9689;51.052;13.772;2022-07-21T04:27:00;14.57;;;4.90;;
19113;SDS011;9689;51.052;13.772;2022-07-21T04:32:02;13.38;;;5.30;;
19113;SDS011;9689;51.052;13.772;2022-07-21T04:37:03;9.45;;;5.13;;
19113;SDS011;9689;51.052;13.772;2022-07-21T04:42:05;9.35;;;5.65;;
19113;SDS011;9689;51.052;13.772;2022-07-21T04:47:06;11.05;;;5.50;;
19113;SDS011;9689;51.052;13.772;2022-07-21T04:52:06;15.45;;;5.75;;
19113;SDS011;9689;51.052;13.772;2022-07-21T04:57:09;12.65;;;5.53;;
19113;SDS011;9689;51.052;13.772;2022-07-21T05:02:09;9.52;;;5.60;;
19113;SDS011;9689;51.052;13.772;2022-07-21T05:07:10;18.00;;;6.22;;
19113;SDS011;9689;51.052;13.772;2022-07-21T05:12:12;13.45;;;5.80;;
19113;SDS011;9689;51.052;13.772;2022-07-21T05:17:13;11.95;;;6.00;;
19113;SDS011;9689;51.052;13.772;2022-07-21T05:22:14;11.10;;;6.00;;
19113;SDS011;9689;51.052;13.772;2022-07-21T05:27:16;13.48;;;5.82;;
19113;SDS011;9689;51.052;13.772;2022-07-21T05:32:16;14.20;;;6.47;;
19113;SDS011;9689;51.052;13.772;2022-07-21T05:37:17;12.20;;;4.93;;
19113;SDS011;9689;51.052;13.772;2022-07-21T05:42:19;11.73;;;5.50;;
19113;SDS011;9689;51.052;13.772;2022-07-21T05:47:20;13.25;;;5.45;;
19113;SDS011;9689;51.052;13.772;2022-07-21T05:52:20;11.55;;;5.35;;
19113;SDS011;9689;51.052;13.772;2022-07-21T05:57:22;17.02;;;5.10;;
19113;SDS011;9689;51.052;13.772;2022-07-21T06:02:23;11.10;;;5.13;;
19113;SDS011;9689;51.052;13.772;2022-07-21T06:07:24;12.77;;;4.75;;
19113;SDS011;9689;51.052;13.772;2022-07-21T06:12:27;7.65;;;5.03;;
19113;SDS011;9689;51.052;13.772;2022-07-21T06:17:28;8.35;;;5.47;;
19113;SDS011;9689;51.052;13.772;2022-07-21T06:22:30;10.77;;;5.13;;
19113;SDS011;9689;51.052;13.772;2022-07-21T06:27:32;15.68;;;5.63;;
19113;SDS011;9689;51.052;13.772;2022-07-21T06:32:33;11.55;;;5.35;;
19113;SDS011;9689;51.052;13.772;2022-07-21T06:37:34;14.27;;;5.53;;
19113;SDS011;9689;51.052;13.772;2022-07-21T06:42:36;9.82;;;5.60;;
19113;SDS011;9689;51.052;13.772;2022-07-21T06:48:02;10.98;;;5.53;;
19113;SDS011;9689;51.052;13.772;2022-07-21T06:53:04;7.72;;;5.40;;
19113;SDS011;9689;51.052;13.772;2022-07-21T06:58:10;8.15;;;5.32;;
19113;SDS011;9689;51.052;13.772;2022-07-21T07:03:13;13.38;;;5.70;;
19113;SDS011;9689;51.052;13.772;2022-07-21T07:08:15;10.65;;;5.82;;
19113;SDS011;9689;51.052;13.772;2022-07-21T07:13:17;9.48;;;6.35;;
19113;SDS011;9689;51.052;13.772;2022-07-21T07:18:38;7.88;;;5.68;;
19113;SDS011;9689;51.052;13.772;2022-07-21T07:23:39;12.27;;;5.90;;
19113;SDS011;9689;51.052;13.772;2022-07-21T07:28:41;7.75;;;5.32;;
19113;SDS011;9689;51.052;13.772;2022-07-21T07:33:42;12.02;;;5.80;;
19113;SDS011;9689;51.052;13.772;2022-07-21T07:38:43;13.23;;;5.53;;
19113;SDS011;9689;51.052;13.772;2022-07-21T07:43:45;10.43;;;5.45;;
19113;SDS011;9689;51.052;13.772;2022-07-21T07:48:46;13.80;;;6.10;;
19113;SDS011;9689;51.052;13.772;2022-07-21T07:53:47;10.57;;;6.30;;
19113;SDS011;9689;51.052;13.772;2022-07-21T07:58:49;11.23;;;5.47;;
19113;SDS011;9689;51.052;13.772;2022-07-21T08:03:50;7.90;;;5.13;;
19113;SDS011;9689;51.052;13.772;2022-07-21T08:08:51;10.02;;;5.82;;
19113;SDS011;9689;51.052;13.772;2022-07-21T08:13:53;10.07;;;5.65;;
19113;SDS011;9689;51.052;13.772;2022-07-21T08:18:56;12.25;;;5.40;;
19113;SDS011;9689;51.052;13.772;2022-07-21T08:23:56;7.30;;;5.45;;
19113;SDS011;9689;51.052;13.772;2022-07-21T08:29:04;10.77;;;5.28;;
19113;SDS011;9689;51.052;13.772;2022-07-21T08:34:05;10.45;;;6.20;;
19113;SDS011;9689;51.052;13.772;2022-07-21T08:39:06;13.07;;;5.57;;
19113;SDS011;9689;51.052;13.772;2022-07-21T08:44:08;10.50;;;6.40;;
19113;SDS011;9689;51.052;13.772;2022-07-21T08:49:10;8.45;;;5.63;;
19113;SDS011;9689;51.052;13.772;2022-07-21T08:54:11;7.82;;;4.72;;
19113;SDS011;9689;51.052;13.772;2022-07-21T08:59:14;9.25;;;5.30;;
19113;SDS011;9689;51.052;13.772;2022-07-21T09:04:18;7.85;;;5.57;;
19113;SDS011;9689;51.052;13.772;2022-07-21T09:09:21;9.10;;;5.55;;
19113;SDS011;9689;51.052;13.772;2022-07-21T09:14:25;9.68;;;5.10;;
19113;SDS011;9689;51.052;13.772;2022-07-21T09:19:27;9.18;;;5.60;;
19113;SDS011;9689;51.052;13.772;2022-07-21T09:24:31;7.85;;;4.57;;
19113;SDS011;9689;51.052;13.772;2022-07-21T09:29:43;10.13;;;5.88;;
19113;SDS011;9689;51.052;13.772;2022-07-21T09:34:45;17.33;;;5.07;;
19113;SDS011;9689;51.052;13.772;2022-07-21T09:39:48;8.38;;;5.28;;
19113;SDS011;9689;51.052;13.772;2022-07-21T09:44:53;9.07;;;5.32;;
19113;SDS011;9689;51.052;13.772;2022-07-21T09:49:55;13.18;;;5.43;;
19113;SDS011;9689;51.052;13.772;2022-07-21T09:55:16;8.20;;;5.13;;
19113;SDS011;9689;51.052;13.772;2022-07-21T10:00:19;9.20;;;5.43;;
19113;SDS011;9689;51.052;13.772;2022-07-21T10:05:21;14.52;;;6.13;;
19113;SDS011;9689;51.052;13.772;2022-07-21T10:10:30;10.68;;;6.13;;
19113;SDS011;9689;51.052;13.772;2022-07-21T10:15:52;7.93;;;5.05;;
19113;SDS011;9689;51.052;13.772;2022-07-21T10:20:55;9.95;;;4.50;;
19113;SDS011;9689;51.052;13.772;2022-07-21T10:26:01;10.20;;;5.38;;
19113;SDS011;9689;51.052;13.772;2022-07-21T10:31:16;9.63;;;5.18;;
19113;SDS011;9689;51.052;13.772;2022-07-21T10:41:44;9.30;;;4.50;;
19113;SDS011;9689;51.052;13.772;2022-07-21T10:46:51;10.07;;;4.13;;
19113;SDS011;9689;51.052;13.772;2022-07-21T10:51:59;7.07;;;4.32;;
19113;SDS011;9689;51.052;13.772;2022-07-21T11:02:31;8.75;;;4.18;;
19113;SDS011;9689;51.052;13.772;2022-07-21T11:13:16;6.18;;;3.33;;
19113;SDS011;9689;51.052;13.772;2022-07-21T11:18:20;7.78;;;4.03;;
19113;SDS011;9689;51.052;13.772;2022-07-21T11:23:25;8.23;;;3.92;;
19113;SDS011;9689;51.052;13.772;2022-07-21T11:28:35;10.07;;;4.32;;
19113;SDS011;9689;51.052;13.772;2022-07-21T11:33:38;10.40;;;4.35;;
19113;SDS011;9689;51.052;13.772;2022-07-21T11:44:00;7.90;;;4.53;;
19113;SDS011;9689;51.052;13.772;2022-07-21T11:49:03;8.07;;;4.88;;
19113;SDS011;9689;51.052;13.772;2022-07-21T11:54:05;9.50;;;3.97;;
19113;SDS011;9689;51.052;13.772;2022-07-21T11:59:09;7.68;;;3.85;;
19113;SDS011;9689;51.052;13.772;2022-07-21T12:04:12;9.88;;;4.22;;
19113;SDS011;9689;51.052;13.772;2022-07-21T12:09:14;10.02;;;4.43;;
19113;SDS011;9689;51.052;13.772;2022-07-21T12:14:14;12.65;;;3.80;;
19113;SDS011;9689;51.052;13.772;2022-07-21T12:19:17;5.38;;;4.20;;
19113;SDS011;9689;51.052;13.772;2022-07-21T12:24:19;6.15;;;3.80;;
19113;SDS011;9689;51.052;13.772;2022-07-21T12:29:24;10.40;;;3.95;;
19113;SDS011;9689;51.052;13.772;2022-07-21T12:34:27;8.48;;;3.60;;
19113;SDS011;9689;51.052;13.772;2022-07-21T12:39:28;6.40;;;3.80;;
19113;SDS011;9689;51.052;13.772;2022-07-21T12:44:46;5.85;;;4.07;;
19113;SDS011;9689;51.052;13.772;2022-07-21T12:49:55;7.18;;;4.18;;
19113;SDS011;9689;51.052;13.772;2022-07-21T12:55:10;19.65;;;3.97;;
19113;SDS011;9689;51.052;13.772;2022-07-21T13:00:11;4.57;;;3.33;;
19113;SDS011;9689;51.052;13.772;2022-07-21T13:05:13;7.63;;;3.75;;
19113;SDS011;9689;51.052;13.772;2022-07-21T13:10:14;8.18;;;4.10;;
19113;SDS011;9689;51.052;13.772;2022-07-21T13:15:17;7.65;;;3.78;;
19113;SDS011;9689;51.052;13.772;2022-07-21T13:20:19;7.30;;;4.03;;
19113;SDS011;9689;51.052;13.772;2022-07-21T13:25:20;6.13;;;3.60;;
19113;SDS011;9689;51.052;13.772;2022-07-21T13:30:20;6.15;;;4.03;;
19113;SDS011;9689;51.052;13.772;2022-07-21T13:35:22;7.35;;;4.18;;
19113;SDS011;9689;51.052;13.772;2022-07-21T13:40:26;6.07;;;3.47;;
19113;SDS011;9689;51.052;13.772;2022-07-21T13:45:48;6.40;;;3.70;;
19113;SDS011;9689;51.052;13.772;2022-07-21T13:50:50;6.65;;;3.70;;
19113;SDS011;9689;51.052;13.772;2022-07-21T13:55:51;9.73;;;3.85;;
19113;SDS011;9689;51.052;13.772;2022-07-21T14:00:53;5.63;;;3.55;;
19113;SDS011;9689;51.052;13.772;2022-07-21T14:05:55;6.93;;;3.97;;
19113;SDS011;9689;51.052;13.772;2022-07-21T14:10:56;5.07;;;3.50;;
19113;SDS011;9689;51.052;13.772;2022-07-21T14:15:57;9.50;;;4.00;;
19113;SDS011;9689;51.052;13.772;2022-07-21T14:20:59;4.93;;;3.75;;
19113;SDS011;9689;51.052;13.772;2022-07-21T14:26:01;6.45;;;3.80;;
19113;SDS011;9689;51.052;13.772;2022-07-21T14:31:03;7.13;;;4.20;;
19113;SDS011;9689;51.052;13.772;2022-07-21T14:36:05;7.40;;;4.43;;
19113;SDS011;9689;51.052;13.772;2022-07-21T14:41:06;5.68;;;3.67;;
19113;SDS011;9689;51.052;13.772;2022-07-21T14:46:07;4.88;;;3.85;;
19113;SDS011;9689;51.052;13.772;2022-07-21T14:51:09;8.18;;;3.72;;
19113;SDS011;9689;51.052;13.772;2022-07-21T14:56:10;5.45;;;3.97;;
19113;SDS011;9689;51.052;13.772;2022-07-21T15:01:11;10.48;;;5.10;;
19113;SDS011;9689;51.052;13.772;2022-07-21T15:06:13;6.75;;;4.35;;
19113;SDS011;9689;51.052;13.772;2022-07-21T15:11:13;5.00;;;4.32;;
19113;SDS011;9689;51.052;13.772;2022-07-21T15:16:15;7.45;;;4.70;;
19113;SDS011;9689;51.052;13.772;2022-07-21T15:21:18;5.78;;;4.30;;
19113;SDS011;9689;51.052;13.772;2022-07-21T15:26:18;9.27;;;4.20;;
19113;SDS011;9689;51.052;13.772;2022-07-21T15:31:19;8.13;;;4.18;;
19113;SDS011;9689;51.052;13.772;2022-07-21T15:36:21;8.57;;;4.38;;
19113;SDS011;9689;51.052;13.772;2022-07-21T15:41:22;8.15;;;5.03;;
19113;SDS011;9689;51.052;13.772;2022-07-21T15:46:43;6.70;;;4.57;;
19113;SDS011;9689;51.052;13.772;2022-07-21T15:51:46;9.40;;;6.07;;
19113;SDS011;9689;51.052;13.772;2022-07-21T15:56:47;8.55;;;5.63;;
19113;SDS011;9689;51.052;13.772;2022-07-21T16:01:48;9.02;;;5.35;;
19113;SDS011;9689;51.052;13.772;2022-07-21T16:06:50;9.40;;;5.57;;
19113;SDS011;9689;51.052;13.772;2022-07-21T16:11:50;12.88;;;6.15;;
19113;SDS011;9689;51.052;13.772;2022-07-21T16:16:51;10.60;;;5.78;;
19113;SDS011;9689;51.052;13.772;2022-07-21T16:21:54;12.70;;;6.28;;
19113;SDS011;9689;51.052;13.772;2022-07-21T16:26:56;12.90;;;6.75;;
19113;SDS011;9689;51.052;13.772;2022-07-21T16:31:57;12.90;;;5.88;;
19113;SDS011;9689;51.052;13.772;2022-07-21T16:37:00;8.82;;;5.07;;
19113;SDS011;9689;51.052;13.772;2022-07-21T16:42:02;9.52;;;5.22;;
19113;SDS011;9689;51.052;13.772;2022-07-21T16:47:10;10.27;;;4.65;;
19113;SDS011;9689;51.052;13.772;2022-07-21T16:52:12;9.23;;;5.05;;
19113;SDS011;9689;51.052;13.772;2022-07-21T16:57:13;7.28;;;5.10;;
19113;SDS011;9689;51.052;13.772;2022-07-21T17:02:14;7.07;;;4.35;;
19113;SDS011;9689;51.052;13.772;2022-07-21T17:07:16;7.78;;;4.97;;
19113;SDS011;9689;51.052;13.772;2022-07-21T17:12:17;8.60;;;4.63;;
19113;SDS011;9689;51.052;13.772;2022-07-21T17:17:18;8.80;;;5.20;;
19113;SDS011;9689;51.052;13.772;2022-07-21T17:22:20;7.03;;;4.80;;
19113;SDS011;9689;51.052;13.772;2022-07-21T17:27:20;7.30;;;5.10;;
19113;SDS011;9689;51.052;13.772;2022-07-21T17:32:21;7.63;;;4.63;;
19113;SDS011;9689;51.052;13.772;2022-07-21T17:37:23;8.32;;;5.07;;
19113;SDS011;9689;51.052;13.772;2022-07-21T17:42:24;8.68;;;4.80;;
19113;SDS011;9689;51.052;13.772;2022-07-21T17:47:25;7.05;;;4.78;;
19113;SDS011;9689;51.052;13.772;2022-07-21T17:52:27;6.55;;;4.72;;
19113;SDS011;9689;51.052;13.772;2022-07-21T17:57:28;11.45;;;4.55;;
19113;SDS011;9689;51.052;13.772;2022-07-21T18:02:46;7.15;;;5.10;;
19113;SDS011;9689;51.052;13.772;2022-07-21T18:07:49;5.63;;;4.30;;
19113;SDS011;9689;51.052;13.772;2022-07-21T18:12:50;9.43;;;5.30;;
19113;SDS011;9689;51.052;13.772;2022-07-21T18:17:51;5.70;;;4.68;;
19113;SDS011;9689;51.052;13.772;2022-07-21T18:22:53;8.18;;;5.20;;
19113;SDS011;9689;51.052;13.772;2022-07-21T18:27:54;9.43;;;5.05;;
19113;SDS011;9689;51.052;13.772;2022-07-21T18:32:54;8.75;;;4.90;;
19113;SDS011;9689;51.052;13.772;2022-07-21T18:37:56;8.25;;;5.65;;
19113;SDS011;9689;51.052;13.772;2022-07-21T18:42:57;8.30;;;5.45;;
19113;SDS011;9689;51.052;13.772;2022-07-21T18:47:59;8.40;;;5.65;;
19113;SDS011;9689;51.052;13.772;2022-07-21T18:53:21;7.07;;;5.65;;
19113;SDS011;9689;51.052;13.772;2022-07-21T18:58:21;8.43;;;5.18;;
19113;SDS011;9689;51.052;13.772;2022-07-21T19:03:22;7.97;;;5.60;;
19113;SDS011;9689;51.052;13.772;2022-07-21T19:08:25;8.57;;;6.00;;
19113;SDS011;9689;51.052;13.772;2022-07-21T19:13:25;10.95;;;5.53;;
19113;SDS011;9689;51.052;13.772;2022-07-21T19:18:26;9.25;;;5.78;;
19113;SDS011;9689;51.052;13.772;2022-07-21T19:23:28;10.68;;;5.97;;
19113;SDS011;9689;51.052;13.772;2022-07-21T19:28:29;8.35;;;6.25;;
19113;SDS011;9689;51.052;13.772;2022-07-21T19:33:32;8.63;;;6.68;;
19113;SDS011;9689;51.052;13.772;2022-07-21T19:38:35;9.65;;;6.60;;
19113;SDS011;9689;51.052;13.772;2022-07-21T19:43:35;13.80;;;6.72;;
19113;SDS011;9689;51.052;13.772;2022-07-21T19:48:36;9.65;;;7.28;;
19113;SDS011;9689;51.052;13.772;2022-07-21T19:53:38;8.82;;;6.80;;
19113;SDS011;9689;51.052;13.772;2022-07-21T19:58:39;11.75;;;6.85;;
19113;SDS011;9689;51.052;13.772;2022-07-21T20:03:39;11.98;;;6.97;;
19113;SDS011;9689;51.052;13.772;2022-07-21T20:08:42;10.93;;;7.00;;
19113;SDS011;9689;51.052;13.772;2022-07-21T20:13:42;12.60;;;6.63;;
19113;SDS011;9689;51.052;13.772;2022-07-21T20:18:45;12.63;;;7.32;;
19113;SDS011;9689;51.052;13.772;2022-07-21T20:23:47;9.45;;;6.85;;
19113;SDS011;9689;51.052;13.772;2022-07-21T20:28:49;13.70;;;7.15;;
19113;SDS011;9689;51.052;13.772;2022-07-21T20:33:50;13.95;;;7.18;;
19113;SDS011;9689;51.052;13.772;2022-07-21T20:38:53;10.10;;;6.80;;
19113;SDS011;9689;51.052;13.772;2022-07-21T20:43:54;9.90;;;7.55;;
19113;SDS011;9689;51.052;13.772;2022-07-21T20:48:55;10.75;;;7.30;;
19113;SDS011;9689;51.052;13.772;2022-07-21T20:53:58;12.18;;;7.05;;
19113;SDS011;9689;51.052;13.772;2022-07-21T20:58:58;13.02;;;7.90;;
19113;SDS011;9689;51.052;13.772;2022-07-21T21:03:59;17.05;;;7.75;;
19113;SDS011;9689;51.052;13.772;2022-07-21T21:09:01;12.18;;;8.55;;
19113;SDS011;9689;51.052;13.772;2022-07-21T21:14:02;12.18;;;7.63;;
19113;SDS011;9689;51.052;13.772;2022-07-21T21:19:02;12.18;;;8.18;;
19113;SDS011;9689;51.052;13.772;2022-07-21T21:24:05;11.02;;;7.75;;
19113;SDS011;9689;51.052;13.772;2022-07-21T21:29:06;14.43;;;8.48;;
19113;SDS011;9689;51.052;13.772;2022-07-21T21:34:06;13.10;;;7.72;;
19113;SDS011;9689;51.052;13.772;2022-07-21T21:39:08;11.82;;;7.45;;
19113;SDS011;9689;51.052;13.772;2022-07-21T21:44:10;14.43;;;8.48;;
19113;SDS011;9689;51.052;13.772;2022-07-21T21:49:10;12.05;;;8.52;;
19113;SDS011;9689;51.052;13.772;2022-07-21T21:54:12;13.38;;;8.30;;
19113;SDS011;9689;51.052;13.772;2022-07-21T21:59:14;13.52;;;9.23;;
19113;SDS011;9689;51.052;13.772;2022-07-21T22:04:14;11.90;;;8.35;;
19113;SDS011;9689;51.052;13.772;2022-07-21T22:09:16;13.32;;;9.00;;
19113;SDS011;9689;51.052;13.772;2022-07-21T22:14:17;11.52;;;8.40;;
19113;SDS011;9689;51.052;13.772;2022-07-21T22:19:23;11.55;;;8.48;;
19113;SDS011;9689;51.052;13.772;2022-07-21T22:24:25;14.27;;;8.70;;
19113;SDS011;9689;51.052;13.772;2022-07-21T22:29:26;13.75;;;8.90;;
19113;SDS011;9689;51.052;13.772;2022-07-21T22:34:27;12.05;;;8.73;;
19113;SDS011;9689;51.052;13.772;2022-07-21T22:39:29;13.55;;;8.70;;
19113;SDS011;9689;51.052;13.772;2022-07-21T22:44:29;15.63;;;8.98;;
19113;SDS011;9689;51.052;13.772;2022-07-21T22:49:30;13.48;;;9.32;;
19113;SDS011;9689;51.052;13.772;2022-07-21T22:54:32;14.13;;;9.38;;
19113;SDS011;9689;51.052;13.772;2022-07-21T22:59:33;12.45;;;9.50;;
19113;SDS011;9689;51.052;13.772;2022-07-21T23:04:34;16.25;;;9.60;;
19113;SDS011;9689;51.052;13.772;2022-07-21T23:09:36;13.40;;;9.38;;
19113;SDS011;9689;51.052;13.772;2022-07-21T23:14:37;12.55;;;8.88;;
19113;SDS011;9689;51.052;13.772;2022-07-21T23:19:37;17.65;;;10.05;;
19113;SDS011;9689;51.052;13.772;2022-07-21T23:24:39;14.70;;;10.00;;
19113;SDS011;9689;51.052;13.772;2022-07-21T23:29:40;17.58;;;10.05;;
19113;SDS011;9689;51.052;13.772;2022-07-21T23:34:41;12.85;;;9.52;;
19113;SDS011;9689;51.052;13.772;2022-07-21T23:39:43;15.13;;;9.55;;
19113;SDS011;9689;51.052;13.772;2022-07-21T23:44:43;12.95;;;9.25;;
19113;SDS011;9689;51.052;13.772;2022-07-21T23:49:44;13.63;;;9.18;;
19113;SDS011;9689;51.052;13.772;2022-07-21T23:54:46;12.70;;;9.27;;
19113;SDS011;9689;51.052;13.772;2022-07-21T23:59:47;15.05;;;9.98;;
